sensor_id;sensor_type;location;lat;lon;timestamp;temperature;humidity
44170;DHT22;29836;52.286;9.576;2024-03-29T00:01:42;6.50;99.90
44170;DHT22;29836;52.286;9.576;2024-03-29T00:04:09;6.30;99.90
44170;DHT22;29836;52.286;9.576;2024-03-29T00:06:34;6.20;99.90
44170;DHT22;29836;52.286;9.576;2024-03-29T00:09:00;6.00;99.90
44170;DHT22;29836;52.286;9.576;2024-03-29T00:11:26;5.80;99.90
44170;DHT22;29836;52.286;9.576;2024-03-29T00:13:52;5.70;99.90
44170;DHT22;29836;52.286;9.576;2024-03-29T00:16:17;5.70;99.90
44170;DHT22;29836;52.286;9.576;2024-03-29T00:18:43;5.80;99.90
44170;DHT22;29836;52.286;9.576;2024-03-29T00:21:08;5.90;99.90
44170;DHT22;29836;52.286;9.576;2024-03-29T00:23:34;6.00;99.90
44170;DHT22;29836;52.286;9.576;2024-03-29T00:25:59;6.00;99.90
44170;DHT22;29836;52.286;9.576;2024-03-29T00:28:25;6.00;99.90
44170;DHT22;29836;52.286;9.576;2024-03-29T00:30:51;6.20;99.90
44170;DHT22;29836;52.286;9.576;2024-03-29T00:33:16;6.20;99.90
44170;DHT22;29836;52.286;9.576;2024-03-29T00:35:42;6.10;99.90
44170;DHT22;29836;52.286;9.576;2024-03-29T00:38:07;6.10;99.90
44170;DHT22;29836;52.286;9.576;2024-03-29T00:40:33;6.20;99.90
44170;DHT22;29836;52.286;9.576;2024-03-29T00:43:00;6.20;99.90
44170;DHT22;29836;52.286;9.576;2024-03-29T00:45:26;6.20;99.90
44170;DHT22;29836;52.286;9.576;2024-03-29T00:47:53;6.30;99.90
44170;DHT22;29836;52.286;9.576;2024-03-29T00:50:20;6.20;99.90
44170;DHT22;29836;52.286;9.576;2024-03-29T00:52:46;6.20;99.90
44170;DHT22;29836;52.286;9.576;2024-03-29T00:55:13;6.10;99.90
44170;DHT22;29836;52.286;9.576;2024-03-29T00:57:39;6.10;99.90
44170;DHT22;29836;52.286;9.576;2024-03-29T01:00:05;6.00;99.90
44170;DHT22;29836;52.286;9.576;2024-03-29T01:02:31;6.00;99.90
44170;DHT22;29836;52.286;9.576;2024-03-29T01:04:57;6.00;99.90
44170;DHT22;29836;52.286;9.576;2024-03-29T01:07:22;6.00;99.90
44170;DHT22;29836;52.286;9.576;2024-03-29T01:09:48;6.00;99.90
44170;DHT22;29836;52.286;9.576;2024-03-29T01:12:13;5.90;99.90
44170;DHT22;29836;52.286;9.576;2024-03-29T01:14:39;5.90;99.90
44170;DHT22;29836;52.286;9.576;2024-03-29T01:17:05;5.90;99.90
44170;DHT22;29836;52.286;9.576;2024-03-29T01:19:32;5.90;99.90
44170;DHT22;29836;52.286;9.576;2024-03-29T01:21:57;5.80;99.90
44170;DHT22;29836;52.286;9.576;2024-03-29T01:24:23;5.80;99.90
44170;DHT22;29836;52.286;9.576;2024-03-29T01:26:49;5.80;99.90
44170;DHT22;29836;52.286;9.576;2024-03-29T01:29:15;5.80;99.90
44170;DHT22;29836;52.286;9.576;2024-03-29T01:31:40;5.80;99.90
44170;DHT22;29836;52.286;9.576;2024-03-29T01:34:06;5.80;99.90
44170;DHT22;29836;52.286;9.576;2024-03-29T01:36:31;5.90;99.90
44170;DHT22;29836;52.286;9.576;2024-03-29T01:38:57;6.00;99.90
44170;DHT22;29836;52.286;9.576;2024-03-29T01:41:24;6.00;99.90
44170;DHT22;29836;52.286;9.576;2024-03-29T01:43:52;5.90;99.90
44170;DHT22;29836;52.286;9.576;2024-03-29T01:46:19;5.80;99.90
44170;DHT22;29836;52.286;9.576;2024-03-29T01:48:45;5.90;99.90
44170;DHT22;29836;52.286;9.576;2024-03-29T01:51:13;5.90;99.90
44170;DHT22;29836;52.286;9.576;2024-03-29T01:53:40;6.00;99.90
44170;DHT22;29836;52.286;9.576;2024-03-29T01:56:07;5.80;99.90
44170;DHT22;29836;52.286;9.576;2024-03-29T01:58:33;5.80;99.90
44170;DHT22;29836;52.286;9.576;2024-03-29T02:01:00;5.70;99.90
44170;DHT22;29836;52.286;9.576;2024-03-29T02:03:26;5.80;99.90
44170;DHT22;29836;52.286;9.576;2024-03-29T02:05:52;5.90;99.90
44170;DHT22;29836;52.286;9.576;2024-03-29T02:08:18;6.00;99.90
44170;DHT22;29836;52.286;9.576;2024-03-29T02:10:47;6.00;99.90
44170;DHT22;29836;52.286;9.576;2024-03-29T02:13:13;6.00;99.90
44170;DHT22;29836;52.286;9.576;2024-03-29T02:15:41;6.10;99.90
44170;DHT22;29836;52.286;9.576;2024-03-29T02:18:07;6.20;99.90
44170;DHT22;29836;52.286;9.576;2024-03-29T02:20:33;6.20;99.90
44170;DHT22;29836;52.286;9.576;2024-03-29T02:23:16;6.10;99.90
44170;DHT22;29836;52.286;9.576;2024-03-29T02:25:43;6.20;99.90
44170;DHT22;29836;52.286;9.576;2024-03-29T02:28:09;6.30;99.90
44170;DHT22;29836;52.286;9.576;2024-03-29T02:30:34;6.30;99.90
44170;DHT22;29836;52.286;9.576;2024-03-29T02:33:00;6.40;99.90
44170;DHT22;29836;52.286;9.576;2024-03-29T02:35:26;6.40;99.90
44170;DHT22;29836;52.286;9.576;2024-03-29T02:37:52;6.50;99.90
44170;DHT22;29836;52.286;9.576;2024-03-29T02:40:19;6.60;99.90
44170;DHT22;29836;52.286;9.576;2024-03-29T02:42:45;6.70;99.90
44170;DHT22;29836;52.286;9.576;2024-03-29T02:45:10;6.80;99.90
44170;DHT22;29836;52.286;9.576;2024-03-29T02:47:36;6.80;99.90
44170;DHT22;29836;52.286;9.576;2024-03-29T02:50:01;6.80;99.90
44170;DHT22;29836;52.286;9.576;2024-03-29T02:52:27;6.80;99.90
44170;DHT22;29836;52.286;9.576;2024-03-29T02:54:54;6.80;99.90
44170;DHT22;29836;52.286;9.576;2024-03-29T02:57:19;6.80;99.90
44170;DHT22;29836;52.286;9.576;2024-03-29T02:59:45;6.90;99.90
44170;DHT22;29836;52.286;9.576;2024-03-29T03:02:10;6.90;99.90
44170;DHT22;29836;52.286;9.576;2024-03-29T03:04:36;7.00;99.90
44170;DHT22;29836;52.286;9.576;2024-03-29T03:07:01;7.00;99.90
44170;DHT22;29836;52.286;9.576;2024-03-29T03:09:45;7.10;99.90
44170;DHT22;29836;52.286;9.576;2024-03-29T03:12:46;7.10;99.90
44170;DHT22;29836;52.286;9.576;2024-03-29T03:15:11;7.10;99.90
44170;DHT22;29836;52.286;9.576;2024-03-29T03:17:37;7.10;99.90
44170;DHT22;29836;52.286;9.576;2024-03-29T03:20:03;7.10;99.90
44170;DHT22;29836;52.286;9.576;2024-03-29T03:22:32;7.10;99.90
44170;DHT22;29836;52.286;9.576;2024-03-29T03:24:57;7.30;99.90
44170;DHT22;29836;52.286;9.576;2024-03-29T03:27:23;7.30;99.90
44170;DHT22;29836;52.286;9.576;2024-03-29T03:29:49;7.50;99.90
44170;DHT22;29836;52.286;9.576;2024-03-29T03:32:14;7.50;99.90
44170;DHT22;29836;52.286;9.576;2024-03-29T03:34:40;7.50;99.90
44170;DHT22;29836;52.286;9.576;2024-03-29T03:37:05;7.60;99.90
44170;DHT22;29836;52.286;9.576;2024-03-29T03:39:31;7.50;99.90
44170;DHT22;29836;52.286;9.576;2024-03-29T03:41:56;7.60;99.90
44170;DHT22;29836;52.286;9.576;2024-03-29T03:44:22;7.70;99.90
44170;DHT22;29836;52.286;9.576;2024-03-29T03:46:50;7.70;99.90
44170;DHT22;29836;52.286;9.576;2024-03-29T03:49:16;7.80;99.90
44170;DHT22;29836;52.286;9.576;2024-03-29T03:51:41;7.70;99.90
44170;DHT22;29836;52.286;9.576;2024-03-29T03:54:07;7.70;99.90
44170;DHT22;29836;52.286;9.576;2024-03-29T03:56:32;7.80;99.90
44170;DHT22;29836;52.286;9.576;2024-03-29T03:58:58;7.80;99.90
44170;DHT22;29836;52.286;9.576;2024-03-29T04:01:23;7.80;99.90
44170;DHT22;29836;52.286;9.576;2024-03-29T04:03:49;7.80;99.90
44170;DHT22;29836;52.286;9.576;2024-03-29T04:06:14;7.80;99.90
44170;DHT22;29836;52.286;9.576;2024-03-29T04:08:40;7.80;99.90
44170;DHT22;29836;52.286;9.576;2024-03-29T04:11:05;7.90;99.90
44170;DHT22;29836;52.286;9.576;2024-03-29T04:13:31;7.90;99.90
44170;DHT22;29836;52.286;9.576;2024-03-29T04:16:04;8.00;99.90
44170;DHT22;29836;52.286;9.576;2024-03-29T04:18:29;8.10;99.90
44170;DHT22;29836;52.286;9.576;2024-03-29T04:20:58;8.20;99.90
44170;DHT22;29836;52.286;9.576;2024-03-29T04:23:24;8.30;99.90
44170;DHT22;29836;52.286;9.576;2024-03-29T04:25:53;8.30;99.90
44170;DHT22;29836;52.286;9.576;2024-03-29T04:28:19;8.30;99.90
44170;DHT22;29836;52.286;9.576;2024-03-29T04:30:55;8.40;99.90
44170;DHT22;29836;52.286;9.576;2024-03-29T04:33:21;8.40;99.90
44170;DHT22;29836;52.286;9.576;2024-03-29T04:36:00;8.40;99.90
44170;DHT22;29836;52.286;9.576;2024-03-29T04:38:26;8.50;99.90
44170;DHT22;29836;52.286;9.576;2024-03-29T04:40:54;8.50;99.90
44170;DHT22;29836;52.286;9.576;2024-03-29T04:43:22;8.50;99.90
44170;DHT22;29836;52.286;9.576;2024-03-29T04:45:48;8.50;99.90
44170;DHT22;29836;52.286;9.576;2024-03-29T04:48:13;8.60;99.90
44170;DHT22;29836;52.286;9.576;2024-03-29T04:50:39;8.60;99.90
44170;DHT22;29836;52.286;9.576;2024-03-29T04:53:05;8.60;99.90
44170;DHT22;29836;52.286;9.576;2024-03-29T04:55:31;8.60;99.90
44170;DHT22;29836;52.286;9.576;2024-03-29T04:57:56;8.60;99.90
44170;DHT22;29836;52.286;9.576;2024-03-29T05:00:22;8.50;99.90
44170;DHT22;29836;52.286;9.576;2024-03-29T05:02:47;8.40;99.90
44170;DHT22;29836;52.286;9.576;2024-03-29T05:05:13;8.30;99.90
44170;DHT22;29836;52.286;9.576;2024-03-29T05:07:39;8.30;99.90
44170;DHT22;29836;52.286;9.576;2024-03-29T05:10:05;8.10;99.90
44170;DHT22;29836;52.286;9.576;2024-03-29T05:12:32;8.00;99.90
44170;DHT22;29836;52.286;9.576;2024-03-29T05:14:58;7.90;99.90
44170;DHT22;29836;52.286;9.576;2024-03-29T05:17:23;7.80;99.90
44170;DHT22;29836;52.286;9.576;2024-03-29T05:19:52;7.60;99.90
44170;DHT22;29836;52.286;9.576;2024-03-29T05:22:18;7.50;99.90
44170;DHT22;29836;52.286;9.576;2024-03-29T05:24:43;7.40;99.90
44170;DHT22;29836;52.286;9.576;2024-03-29T05:27:09;7.30;99.90
44170;DHT22;29836;52.286;9.576;2024-03-29T05:29:34;7.20;99.90
44170;DHT22;29836;52.286;9.576;2024-03-29T05:32:00;7.10;99.90
44170;DHT22;29836;52.286;9.576;2024-03-29T05:34:25;7.00;99.90
44170;DHT22;29836;52.286;9.576;2024-03-29T05:36:51;7.00;99.90
44170;DHT22;29836;52.286;9.576;2024-03-29T05:39:16;6.80;99.90
44170;DHT22;29836;52.286;9.576;2024-03-29T05:41:44;6.80;99.90
44170;DHT22;29836;52.286;9.576;2024-03-29T05:44:09;6.70;99.90
44170;DHT22;29836;52.286;9.576;2024-03-29T05:46:35;6.70;99.90
44170;DHT22;29836;52.286;9.576;2024-03-29T05:49:00;6.60;99.90
44170;DHT22;29836;52.286;9.576;2024-03-29T05:51:26;6.50;99.90
44170;DHT22;29836;52.286;9.576;2024-03-29T05:53:51;6.50;99.90
44170;DHT22;29836;52.286;9.576;2024-03-29T05:56:17;6.40;99.90
44170;DHT22;29836;52.286;9.576;2024-03-29T05:58:42;6.30;99.90
44170;DHT22;29836;52.286;9.576;2024-03-29T06:01:08;6.30;99.90
44170;DHT22;29836;52.286;9.576;2024-03-29T06:03:33;6.40;99.90
44170;DHT22;29836;52.286;9.576;2024-03-29T06:05:59;6.40;99.90
44170;DHT22;29836;52.286;9.576;2024-03-29T06:08:24;6.30;99.90
44170;DHT22;29836;52.286;9.576;2024-03-29T06:10:52;6.30;99.90
44170;DHT22;29836;52.286;9.576;2024-03-29T06:13:18;6.30;99.90
44170;DHT22;29836;52.286;9.576;2024-03-29T06:15:55;6.30;99.90
44170;DHT22;29836;52.286;9.576;2024-03-29T06:18:39;6.30;99.90
44170;DHT22;29836;52.286;9.576;2024-03-29T06:21:05;6.30;99.90
44170;DHT22;29836;52.286;9.576;2024-03-29T06:23:30;6.40;99.90
44170;DHT22;29836;52.286;9.576;2024-03-29T06:25:56;6.30;99.90
44170;DHT22;29836;52.286;9.576;2024-03-29T06:28:21;6.30;99.90
44170;DHT22;29836;52.286;9.576;2024-03-29T06:30:47;6.40;99.90
44170;DHT22;29836;52.286;9.576;2024-03-29T06:33:12;6.50;99.90
44170;DHT22;29836;52.286;9.576;2024-03-29T06:35:38;6.50;99.90
44170;DHT22;29836;52.286;9.576;2024-03-29T06:38:03;6.40;99.90
44170;DHT22;29836;52.286;9.576;2024-03-29T06:40:29;6.40;99.90
44170;DHT22;29836;52.286;9.576;2024-03-29T06:42:55;6.40;99.90
44170;DHT22;29836;52.286;9.576;2024-03-29T06:45:23;6.40;99.90
44170;DHT22;29836;52.286;9.576;2024-03-29T06:47:49;6.40;99.90
44170;DHT22;29836;52.286;9.576;2024-03-29T06:50:14;6.40;99.90
44170;DHT22;29836;52.286;9.576;2024-03-29T06:52:40;6.40;99.90
44170;DHT22;29836;52.286;9.576;2024-03-29T06:55:05;6.40;99.90
44170;DHT22;29836;52.286;9.576;2024-03-29T06:57:31;6.30;99.90
44170;DHT22;29836;52.286;9.576;2024-03-29T06:59:57;6.30;99.90
44170;DHT22;29836;52.286;9.576;2024-03-29T07:02:23;6.20;99.90
44170;DHT22;29836;52.286;9.576;2024-03-29T07:04:49;6.20;99.90
44170;DHT22;29836;52.286;9.576;2024-03-29T07:07:15;6.10;99.90
44170;DHT22;29836;52.286;9.576;2024-03-29T07:09:40;6.10;99.90
44170;DHT22;29836;52.286;9.576;2024-03-29T07:12:06;6.00;99.90
44170;DHT22;29836;52.286;9.576;2024-03-29T07:14:31;6.00;99.90
44170;DHT22;29836;52.286;9.576;2024-03-29T07:16:58;6.00;99.90
44170;DHT22;29836;52.286;9.576;2024-03-29T07:19:24;5.90;99.90
44170;DHT22;29836;52.286;9.576;2024-03-29T07:21:50;5.90;99.90
44170;DHT22;29836;52.286;9.576;2024-03-29T07:24:18;6.00;99.90
44170;DHT22;29836;52.286;9.576;2024-03-29T07:26:44;6.00;99.90
44170;DHT22;29836;52.286;9.576;2024-03-29T07:29:10;6.00;99.90
44170;DHT22;29836;52.286;9.576;2024-03-29T07:31:35;6.00;99.90
44170;DHT22;29836;52.286;9.576;2024-03-29T07:34:01;6.10;99.90
44170;DHT22;29836;52.286;9.576;2024-03-29T07:36:27;6.10;99.90
44170;DHT22;29836;52.286;9.576;2024-03-29T07:38:59;6.10;99.90
44170;DHT22;29836;52.286;9.576;2024-03-29T07:41:25;6.10;99.90
44170;DHT22;29836;52.286;9.576;2024-03-29T07:43:52;6.20;99.90
44170;DHT22;29836;52.286;9.576;2024-03-29T07:46:20;6.20;99.90
44170;DHT22;29836;52.286;9.576;2024-03-29T07:48:47;6.20;99.90
44170;DHT22;29836;52.286;9.576;2024-03-29T07:51:13;6.30;99.90
44170;DHT22;29836;52.286;9.576;2024-03-29T07:53:38;6.40;99.90
44170;DHT22;29836;52.286;9.576;2024-03-29T07:56:04;6.50;99.90
44170;DHT22;29836;52.286;9.576;2024-03-29T07:58:30;6.70;99.90
44170;DHT22;29836;52.286;9.576;2024-03-29T08:00:57;6.80;99.90
44170;DHT22;29836;52.286;9.576;2024-03-29T08:03:22;6.80;99.90
44170;DHT22;29836;52.286;9.576;2024-03-29T08:05:58;6.80;99.90
44170;DHT22;29836;52.286;9.576;2024-03-29T08:08:24;6.90;99.90
44170;DHT22;29836;52.286;9.576;2024-03-29T08:10:50;7.00;99.90
44170;DHT22;29836;52.286;9.576;2024-03-29T08:13:16;7.00;99.90
44170;DHT22;29836;52.286;9.576;2024-03-29T08:15:46;7.10;99.90
44170;DHT22;29836;52.286;9.576;2024-03-29T08:18:11;7.20;99.90
44170;DHT22;29836;52.286;9.576;2024-03-29T08:20:36;7.30;99.90
44170;DHT22;29836;52.286;9.576;2024-03-29T08:23:03;7.40;99.90
44170;DHT22;29836;52.286;9.576;2024-03-29T08:25:29;7.60;99.90
44170;DHT22;29836;52.286;9.576;2024-03-29T08:27:54;7.80;99.90
44170;DHT22;29836;52.286;9.576;2024-03-29T08:30:27;8.00;99.90
44170;DHT22;29836;52.286;9.576;2024-03-29T08:32:57;8.00;99.90
44170;DHT22;29836;52.286;9.576;2024-03-29T08:35:25;8.10;99.90
44170;DHT22;29836;52.286;9.576;2024-03-29T08:37:50;8.30;99.90
44170;DHT22;29836;52.286;9.576;2024-03-29T08:40:16;8.40;99.90
44170;DHT22;29836;52.286;9.576;2024-03-29T08:42:41;8.60;99.90
44170;DHT22;29836;52.286;9.576;2024-03-29T08:45:07;8.80;99.90
44170;DHT22;29836;52.286;9.576;2024-03-29T08:47:34;9.00;99.90
44170;DHT22;29836;52.286;9.576;2024-03-29T08:49:59;9.10;99.90
44170;DHT22;29836;52.286;9.576;2024-03-29T08:52:25;9.30;99.90
44170;DHT22;29836;52.286;9.576;2024-03-29T08:54:50;9.30;99.90
44170;DHT22;29836;52.286;9.576;2024-03-29T08:57:16;9.30;99.90
44170;DHT22;29836;52.286;9.576;2024-03-29T08:59:41;9.40;99.90
44170;DHT22;29836;52.286;9.576;2024-03-29T09:02:07;9.30;99.90
44170;DHT22;29836;52.286;9.576;2024-03-29T09:04:33;9.20;99.90
44170;DHT22;29836;52.286;9.576;2024-03-29T09:07:00;9.30;99.90
44170;DHT22;29836;52.286;9.576;2024-03-29T09:09:27;9.40;99.90
44170;DHT22;29836;52.286;9.576;2024-03-29T09:11:53;9.60;99.90
44170;DHT22;29836;52.286;9.576;2024-03-29T09:14:19;9.70;99.90
44170;DHT22;29836;52.286;9.576;2024-03-29T09:16:44;9.90;99.90
44170;DHT22;29836;52.286;9.576;2024-03-29T09:19:13;10.30;99.90
44170;DHT22;29836;52.286;9.576;2024-03-29T09:21:39;10.70;99.90
44170;DHT22;29836;52.286;9.576;2024-03-29T09:24:05;11.20;99.90
44170;DHT22;29836;52.286;9.576;2024-03-29T09:26:31;11.30;99.90
44170;DHT22;29836;52.286;9.576;2024-03-29T09:28:56;11.10;99.90
44170;DHT22;29836;52.286;9.576;2024-03-29T09:31:22;11.10;99.90
44170;DHT22;29836;52.286;9.576;2024-03-29T09:33:47;11.60;99.90
44170;DHT22;29836;52.286;9.576;2024-03-29T09:36:21;12.30;99.90
44170;DHT22;29836;52.286;9.576;2024-03-29T09:38:51;12.10;99.90
44170;DHT22;29836;52.286;9.576;2024-03-29T09:41:18;12.70;99.90
44170;DHT22;29836;52.286;9.576;2024-03-29T09:43:46;13.80;99.90
44170;DHT22;29836;52.286;9.576;2024-03-29T09:46:13;13.70;99.90
44170;DHT22;29836;52.286;9.576;2024-03-29T09:48:40;13.70;99.90
44170;DHT22;29836;52.286;9.576;2024-03-29T09:51:07;13.40;99.90
44170;DHT22;29836;52.286;9.576;2024-03-29T09:53:37;13.20;99.90
44170;DHT22;29836;52.286;9.576;2024-03-29T09:56:04;12.70;99.90
44170;DHT22;29836;52.286;9.576;2024-03-29T09:58:34;12.60;99.90
44170;DHT22;29836;52.286;9.576;2024-03-29T10:01:04;12.40;99.90
44170;DHT22;29836;52.286;9.576;2024-03-29T10:03:31;12.20;99.90
44170;DHT22;29836;52.286;9.576;2024-03-29T10:05:57;12.20;99.90
44170;DHT22;29836;52.286;9.576;2024-03-29T10:08:30;12.30;99.90
44170;DHT22;29836;52.286;9.576;2024-03-29T10:10:58;12.30;99.90
44170;DHT22;29836;52.286;9.576;2024-03-29T10:13:24;12.30;99.90
44170;DHT22;29836;52.286;9.576;2024-03-29T10:15:50;12.40;99.90
44170;DHT22;29836;52.286;9.576;2024-03-29T10:18:18;12.80;99.90
44170;DHT22;29836;52.286;9.576;2024-03-29T10:20:45;13.10;99.90
44170;DHT22;29836;52.286;9.576;2024-03-29T10:23:11;13.50;99.90
44170;DHT22;29836;52.286;9.576;2024-03-29T10:25:37;14.00;99.90
44170;DHT22;29836;52.286;9.576;2024-03-29T10:28:02;14.30;99.90
44170;DHT22;29836;52.286;9.576;2024-03-29T10:30:29;14.60;99.90
44170;DHT22;29836;52.286;9.576;2024-03-29T10:32:58;14.50;99.90
44170;DHT22;29836;52.286;9.576;2024-03-29T10:35:26;14.50;99.90
44170;DHT22;29836;52.286;9.576;2024-03-29T10:37:53;14.10;99.90
44170;DHT22;29836;52.286;9.576;2024-03-29T10:40:21;14.00;99.90
44170;DHT22;29836;52.286;9.576;2024-03-29T10:42:48;14.10;99.90
44170;DHT22;29836;52.286;9.576;2024-03-29T10:45:14;14.00;99.90
44170;DHT22;29836;52.286;9.576;2024-03-29T10:47:41;13.70;99.90
44170;DHT22;29836;52.286;9.576;2024-03-29T10:50:11;14.10;99.90
44170;DHT22;29836;52.286;9.576;2024-03-29T10:52:39;14.20;99.90
44170;DHT22;29836;52.286;9.576;2024-03-29T10:55:08;14.40;99.90
44170;DHT22;29836;52.286;9.576;2024-03-29T10:57:34;14.50;99.90
44170;DHT22;29836;52.286;9.576;2024-03-29T11:00:08;14.90;99.90
44170;DHT22;29836;52.286;9.576;2024-03-29T11:05:10;14.40;99.90
44170;DHT22;29836;52.286;9.576;2024-03-29T11:07:40;14.30;99.90
44170;DHT22;29836;52.286;9.576;2024-03-29T11:10:23;14.70;99.90
44170;DHT22;29836;52.286;9.576;2024-03-29T11:13:12;15.40;99.90
44170;DHT22;29836;52.286;9.576;2024-03-29T11:15:40;15.60;99.50
44170;DHT22;29836;52.286;9.576;2024-03-29T11:18:08;15.10;99.90
44170;DHT22;29836;52.286;9.576;2024-03-29T11:20:34;14.70;99.90
44170;DHT22;29836;52.286;9.576;2024-03-29T11:23:04;14.50;99.90
44170;DHT22;29836;52.286;9.576;2024-03-29T11:25:43;14.30;99.90
44170;DHT22;29836;52.286;9.576;2024-03-29T11:28:11;14.60;99.90
44170;DHT22;29836;52.286;9.576;2024-03-29T11:30:49;14.50;99.90
44170;DHT22;29836;52.286;9.576;2024-03-29T11:36:10;14.90;99.90
44170;DHT22;29836;52.286;9.576;2024-03-29T11:38:37;14.90;99.90
44170;DHT22;29836;52.286;9.576;2024-03-29T11:41:07;14.90;99.90
44170;DHT22;29836;52.286;9.576;2024-03-29T11:43:35;15.00;99.90
44170;DHT22;29836;52.286;9.576;2024-03-29T11:46:03;15.40;99.90
44170;DHT22;29836;52.286;9.576;2024-03-29T11:48:30;15.30;99.90
44170;DHT22;29836;52.286;9.576;2024-03-29T11:51:00;15.50;99.90
44170;DHT22;29836;52.286;9.576;2024-03-29T11:53:26;15.20;99.90
44170;DHT22;29836;52.286;9.576;2024-03-29T11:55:59;14.80;99.90
44170;DHT22;29836;52.286;9.576;2024-03-29T11:58:27;14.70;99.90
44170;DHT22;29836;52.286;9.576;2024-03-29T12:00:54;14.50;99.90
44170;DHT22;29836;52.286;9.576;2024-03-29T12:03:21;14.60;99.90
44170;DHT22;29836;52.286;9.576;2024-03-29T12:05:49;14.90;99.90
44170;DHT22;29836;52.286;9.576;2024-03-29T12:08:16;14.70;99.90
44170;DHT22;29836;52.286;9.576;2024-03-29T12:10:41;14.50;99.90
44170;DHT22;29836;52.286;9.576;2024-03-29T12:13:07;14.60;99.90
44170;DHT22;29836;52.286;9.576;2024-03-29T12:15:34;14.70;99.90
44170;DHT22;29836;52.286;9.576;2024-03-29T12:18:01;14.50;99.90
44170;DHT22;29836;52.286;9.576;2024-03-29T12:20:31;14.60;99.90
44170;DHT22;29836;52.286;9.576;2024-03-29T12:23:05;14.50;99.90
44170;DHT22;29836;52.286;9.576;2024-03-29T12:25:32;14.50;99.90
44170;DHT22;29836;52.286;9.576;2024-03-29T12:27:59;14.80;99.90
44170;DHT22;29836;52.286;9.576;2024-03-29T12:30:25;14.80;99.90
44170;DHT22;29836;52.286;9.576;2024-03-29T12:33:05;15.00;99.90
44170;DHT22;29836;52.286;9.576;2024-03-29T12:35:44;15.00;99.90
44170;DHT22;29836;52.286;9.576;2024-03-29T12:38:12;14.90;99.90
44170;DHT22;29836;52.286;9.576;2024-03-29T12:40:42;14.90;99.90
44170;DHT22;29836;52.286;9.576;2024-03-29T12:43:09;14.80;99.90
44170;DHT22;29836;52.286;9.576;2024-03-29T12:45:35;15.00;99.90
44170;DHT22;29836;52.286;9.576;2024-03-29T12:48:16;14.80;99.90
44170;DHT22;29836;52.286;9.576;2024-03-29T12:50:43;14.30;99.90
44170;DHT22;29836;52.286;9.576;2024-03-29T12:53:11;14.10;99.90
44170;DHT22;29836;52.286;9.576;2024-03-29T12:55:39;14.30;99.90
44170;DHT22;29836;52.286;9.576;2024-03-29T12:58:05;14.60;99.90
44170;DHT22;29836;52.286;9.576;2024-03-29T13:00:38;14.70;99.90
44170;DHT22;29836;52.286;9.576;2024-03-29T13:03:04;14.70;99.90
44170;DHT22;29836;52.286;9.576;2024-03-29T13:05:30;14.90;99.90
44170;DHT22;29836;52.286;9.576;2024-03-29T13:08:03;14.60;99.90
44170;DHT22;29836;52.286;9.576;2024-03-29T13:10:29;14.60;99.90
44170;DHT22;29836;52.286;9.576;2024-03-29T13:12:55;14.60;99.90
44170;DHT22;29836;52.286;9.576;2024-03-29T13:15:22;14.60;99.90
44170;DHT22;29836;52.286;9.576;2024-03-29T13:17:50;14.70;99.90
44170;DHT22;29836;52.286;9.576;2024-03-29T13:20:16;14.80;99.90
44170;DHT22;29836;52.286;9.576;2024-03-29T13:22:43;15.00;99.90
44170;DHT22;29836;52.286;9.576;2024-03-29T13:25:14;15.00;99.90
44170;DHT22;29836;52.286;9.576;2024-03-29T13:27:41;15.20;99.90
44170;DHT22;29836;52.286;9.576;2024-03-29T13:30:08;15.40;99.90
44170;DHT22;29836;52.286;9.576;2024-03-29T13:32:38;15.30;99.90
44170;DHT22;29836;52.286;9.576;2024-03-29T13:35:05;14.90;99.90
44170;DHT22;29836;52.286;9.576;2024-03-29T13:37:34;15.00;99.90
44170;DHT22;29836;52.286;9.576;2024-03-29T13:39:59;15.00;99.90
44170;DHT22;29836;52.286;9.576;2024-03-29T13:42:25;14.90;99.90
44170;DHT22;29836;52.286;9.576;2024-03-29T13:44:51;14.90;99.90
44170;DHT22;29836;52.286;9.576;2024-03-29T13:47:17;14.70;99.90
44170;DHT22;29836;52.286;9.576;2024-03-29T13:49:43;14.80;99.90
44170;DHT22;29836;52.286;9.576;2024-03-29T13:52:09;14.70;99.90
44170;DHT22;29836;52.286;9.576;2024-03-29T13:54:34;14.80;99.90
44170;DHT22;29836;52.286;9.576;2024-03-29T13:57:00;14.70;99.90
44170;DHT22;29836;52.286;9.576;2024-03-29T13:59:27;14.70;99.90
44170;DHT22;29836;52.286;9.576;2024-03-29T14:01:53;14.50;99.90
44170;DHT22;29836;52.286;9.576;2024-03-29T14:04:18;14.30;99.90
44170;DHT22;29836;52.286;9.576;2024-03-29T14:06:44;14.20;99.90
44170;DHT22;29836;52.286;9.576;2024-03-29T14:09:09;14.20;99.90
44170;DHT22;29836;52.286;9.576;2024-03-29T14:11:35;14.30;99.90
44170;DHT22;29836;52.286;9.576;2024-03-29T14:14:00;14.40;99.90
44170;DHT22;29836;52.286;9.576;2024-03-29T14:16:26;14.70;99.90
44170;DHT22;29836;52.286;9.576;2024-03-29T14:18:51;14.80;99.90
44170;DHT22;29836;52.286;9.576;2024-03-29T14:21:17;14.80;99.90
44170;DHT22;29836;52.286;9.576;2024-03-29T14:23:42;15.00;99.90
44170;DHT22;29836;52.286;9.576;2024-03-29T14:26:08;15.00;99.90
44170;DHT22;29836;52.286;9.576;2024-03-29T14:28:33;15.20;99.90
44170;DHT22;29836;52.286;9.576;2024-03-29T14:30:59;15.30;99.90
44170;DHT22;29836;52.286;9.576;2024-03-29T14:33:24;15.10;99.90
44170;DHT22;29836;52.286;9.576;2024-03-29T14:35:50;14.90;99.90
44170;DHT22;29836;52.286;9.576;2024-03-29T14:38:16;14.70;99.90
44170;DHT22;29836;52.286;9.576;2024-03-29T14:40:42;14.70;99.90
44170;DHT22;29836;52.286;9.576;2024-03-29T14:43:08;14.80;99.90
44170;DHT22;29836;52.286;9.576;2024-03-29T14:45:34;14.80;99.90
44170;DHT22;29836;52.286;9.576;2024-03-29T14:47:59;14.80;99.90
44170;DHT22;29836;52.286;9.576;2024-03-29T14:50:25;14.60;99.90
44170;DHT22;29836;52.286;9.576;2024-03-29T14:52:51;14.70;99.90
44170;DHT22;29836;52.286;9.576;2024-03-29T14:55:17;14.70;99.90
44170;DHT22;29836;52.286;9.576;2024-03-29T14:57:42;14.70;99.90
44170;DHT22;29836;52.286;9.576;2024-03-29T15:00:08;14.60;99.90
44170;DHT22;29836;52.286;9.576;2024-03-29T15:02:34;14.70;99.90
44170;DHT22;29836;52.286;9.576;2024-03-29T15:05:00;14.70;99.90
44170;DHT22;29836;52.286;9.576;2024-03-29T15:07:25;14.60;99.90
44170;DHT22;29836;52.286;9.576;2024-03-29T15:09:51;14.50;99.90
44170;DHT22;29836;52.286;9.576;2024-03-29T15:12:17;14.30;99.90
44170;DHT22;29836;52.286;9.576;2024-03-29T15:14:42;14.30;99.90
44170;DHT22;29836;52.286;9.576;2024-03-29T15:17:08;14.40;99.90
44170;DHT22;29836;52.286;9.576;2024-03-29T15:19:34;14.50;99.90
44170;DHT22;29836;52.286;9.576;2024-03-29T15:21:59;14.80;99.90
44170;DHT22;29836;52.286;9.576;2024-03-29T15:24:25;14.90;99.90
44170;DHT22;29836;52.286;9.576;2024-03-29T15:26:51;15.10;99.90
44170;DHT22;29836;52.286;9.576;2024-03-29T15:29:21;15.00;99.90
44170;DHT22;29836;52.286;9.576;2024-03-29T15:31:47;15.10;99.90
44170;DHT22;29836;52.286;9.576;2024-03-29T15:34:13;14.90;99.90
44170;DHT22;29836;52.286;9.576;2024-03-29T15:36:38;14.70;99.90
44170;DHT22;29836;52.286;9.576;2024-03-29T15:42:27;14.40;99.90
44170;DHT22;29836;52.286;9.576;2024-03-29T15:44:52;14.50;99.90
44170;DHT22;29836;52.286;9.576;2024-03-29T15:47:18;14.40;99.90